createdAt,value
2022-10-01T00:00:31.555Z,47.07
2022-10-01T00:03:25.485Z,47.06
2022-10-01T00:06:05.137Z,47.08
2022-10-01T00:08:38.235Z,47.08
2022-10-01T00:11:15.813Z,47.10
2022-10-01T00:13:48.252Z,47.02
2022-10-01T00:16:22.342Z,46.96
2022-10-01T00:18:55.392Z,47.05
2022-10-01T00:21:29.371Z,47.35
2022-10-01T00:24:03.212Z,47.33
2022-10-01T00:26:37.744Z,47.40
2022-10-01T00:29:12.973Z,47.83
2022-10-01T00:31:45.717Z,47.80
2022-10-01T00:34:18.008Z,47.64
2022-10-01T00:36:50.559Z,47.80
2022-10-01T00:39:23.757Z,47.84
2022-10-01T00:41:56.046Z,47.93
2022-10-01T00:44:34.591Z,48.12
2022-10-01T00:47:10.982Z,47.93
2022-10-01T00:49:43.262Z,48.06
2022-10-01T00:52:18.460Z,48.04
2022-10-01T00:54:54.047Z,48.24
2022-10-01T00:57:28.096Z,48.26
2022-10-01T01:00:03.448Z,48.22
2022-10-01T01:02:35.667Z,48.31
2022-10-01T01:05:09.237Z,48.16
2022-10-01T01:07:45.156Z,48.40
2022-10-01T01:10:20.272Z,48.60
2022-10-01T01:13:02.098Z,48.56
2022-10-01T01:15:40.512Z,48.53
2022-10-01T01:18:17.344Z,48.61
2022-10-01T01:20:55.456Z,48.79
2022-10-01T01:23:43.934Z,48.81
2022-10-01T01:26:26.602Z,48.90
2022-10-01T01:29:02.986Z,48.97
2022-10-01T01:31:39.170Z,49.21
2022-10-01T01:34:13.309Z,49.09
2022-10-01T01:36:48.648Z,49.33
2022-10-01T01:39:22.029Z,49.24
2022-10-01T01:41:56.772Z,49.34
2022-10-01T01:44:32.087Z,49.47
2022-10-01T01:47:05.331Z,49.39
2022-10-01T01:49:38.459Z,49.35
2022-10-01T01:52:16.147Z,49.38
2022-10-01T01:54:49.839Z,49.34
2022-10-01T01:57:22.848Z,49.54
2022-10-01T01:59:56.814Z,49.50
2022-10-01T02:02:33.423Z,49.60
2022-10-01T02:05:08.704Z,49.59
2022-10-01T02:08:06.175Z,49.76
2022-10-01T02:10:49.553Z,49.75
2022-10-01T02:13:30.717Z,49.86
2022-10-01T02:16:10.595Z,49.88
2022-10-01T02:18:50.660Z,49.85
2022-10-01T02:21:25.267Z,49.82
2022-10-01T02:24:02.079Z,50.02
2022-10-01T02:26:36.281Z,49.91
2022-10-01T02:29:09.936Z,49.91
2022-10-01T02:31:42.820Z,50.25
2022-10-01T02:34:20.119Z,50.27
2022-10-01T02:36:54.055Z,50.37
2022-10-01T02:39:27.108Z,49.99
2022-10-01T02:42:00.549Z,50.30
2022-10-01T02:44:38.595Z,50.24
2022-10-01T02:47:14.337Z,50.17
2022-10-01T02:49:46.868Z,50.27
2022-10-01T02:52:26.082Z,50.38
2022-10-01T02:55:00.522Z,50.48
2022-10-01T02:57:33.028Z,50.58
2022-10-01T03:00:05.318Z,50.59
2022-10-01T03:02:37.677Z,50.77
2022-10-01T03:05:11.430Z,50.99
2022-10-01T03:07:43.775Z,50.87
2022-10-01T03:10:17.261Z,50.90
2022-10-01T03:12:51.163Z,50.81
2022-10-01T03:15:23.572Z,51.10
2022-10-01T03:17:56.294Z,50.93
2022-10-01T03:20:28.461Z,50.99
2022-10-01T03:23:00.728Z,51.11
2022-10-01T03:25:32.997Z,51.34
2022-10-01T03:28:05.316Z,51.15
2022-10-01T03:30:37.542Z,51.09
2022-10-01T03:33:09.855Z,51.12
2022-10-01T03:35:42.012Z,51.32
2022-10-01T03:38:15.164Z,51.13
2022-10-01T03:40:47.356Z,51.41
2022-10-01T03:43:19.549Z,51.51
2022-10-01T03:45:51.858Z,51.43
2022-10-01T03:48:24.333Z,51.78
2022-10-01T03:50:57.874Z,51.56
2022-10-01T03:53:31.521Z,51.88
2022-10-01T03:56:04.930Z,51.66
2022-10-01T03:58:37.087Z,51.84
2022-10-01T04:01:09.255Z,51.91
2022-10-01T04:03:41.645Z,51.91
2022-10-01T04:06:14.461Z,51.79
2022-10-01T04:08:46.889Z,52.01
2022-10-01T04:11:19.090Z,51.97
2022-10-01T04:13:51.344Z,52.03
2022-10-01T04:16:25.287Z,52.21
2022-10-01T04:18:58.078Z,52.25
2022-10-01T04:21:29.144Z,52.25
2022-10-01T04:24:03.413Z,52.26
2022-10-01T04:26:36.633Z,52.34
2022-10-01T04:29:09.180Z,52.45
2022-10-01T04:31:41.820Z,52.47
2022-10-01T04:34:14.177Z,52.48
2022-10-01T04:36:46.562Z,52.62
2022-10-01T04:39:17.493Z,52.57
2022-10-01T04:41:50.136Z,52.53
2022-10-01T04:44:22.283Z,52.57
2022-10-01T04:46:54.491Z,52.68
2022-10-01T04:49:26.867Z,52.75
2022-10-01T04:51:59.047Z,53.01
2022-10-01T04:54:31.412Z,53.04
2022-10-01T04:57:03.597Z,52.87
2022-10-01T04:59:35.820Z,53.08
2022-10-01T05:02:08.029Z,52.87
2022-10-01T05:04:40.390Z,52.99
2022-10-01T05:07:12.799Z,53.13
2022-10-01T05:09:44.958Z,53.06
2022-10-01T05:12:20.116Z,53.20
2022-10-01T05:14:56.510Z,53.11
2022-10-01T05:17:28.641Z,53.38
2022-10-01T05:20:00.933Z,53.25
2022-10-01T05:22:33.298Z,53.19
2022-10-01T05:25:07.251Z,53.29
2022-10-01T05:27:41.045Z,53.39
2022-10-01T05:30:15.173Z,53.44
2022-10-01T05:32:57.388Z,53.49
2022-10-01T05:35:29.771Z,53.54
2022-10-01T05:38:03.139Z,53.25
2022-10-01T05:40:35.380Z,53.34
2022-10-01T05:43:07.521Z,53.37
2022-10-01T05:45:39.976Z,53.31
2022-10-01T05:48:10.594Z,53.30
2022-10-01T05:50:44.346Z,53.22
2022-10-01T05:53:16.675Z,53.34
2022-10-01T05:55:48.941Z,53.33
2022-10-01T05:58:19.676Z,53.29
2022-10-01T06:00:51.967Z,53.41
2022-10-01T06:03:24.297Z,53.36
2022-10-01T06:05:54.837Z,53.29
2022-10-01T06:08:28.902Z,53.33
2022-10-01T06:11:03.663Z,53.43
2022-10-01T06:13:38.489Z,53.24
2022-10-01T06:16:11.002Z,53.41
2022-10-01T06:18:41.705Z,53.26
2022-10-01T06:21:14.010Z,53.24
2022-10-01T06:23:46.358Z,53.06
2022-10-01T06:26:17.293Z,52.90
2022-10-01T06:28:51.890Z,52.94
2022-10-01T06:31:24.399Z,52.92
2022-10-01T06:33:55.064Z,52.78
2022-10-01T06:36:27.433Z,52.70
2022-10-01T06:38:59.616Z,52.56
2022-10-01T06:41:31.967Z,52.45
2022-10-01T06:44:04.752Z,52.65
2022-10-01T06:46:36.954Z,52.55
2022-10-01T06:49:09.306Z,52.47
2022-10-01T06:51:57.629Z,52.47
2022-10-01T06:54:29.889Z,52.48
2022-10-01T06:57:00.630Z,52.19
2022-10-01T06:59:32.830Z,52.30
2022-10-01T07:02:05.064Z,52.13
2022-10-01T07:04:37.274Z,52.02
2022-10-01T07:07:09.461Z,52.16
2022-10-01T07:09:41.646Z,52.13
2022-10-01T07:12:12.423Z,52.04
2022-10-01T07:14:44.664Z,51.96
2022-10-01T07:17:16.842Z,51.88
2022-10-01T07:19:49.081Z,51.99
2022-10-01T07:22:24.236Z,51.95
2022-10-01T07:24:56.457Z,51.62
2022-10-01T07:27:28.789Z,51.70
2022-10-01T07:30:01.498Z,51.73
2022-10-01T07:32:35.548Z,51.52
2022-10-01T07:35:12.623Z,51.45
2022-10-01T07:37:45.183Z,51.17
2022-10-01T07:40:18.284Z,51.24
2022-10-01T07:42:57.142Z,51.27
2022-10-01T07:45:29.500Z,51.12
2022-10-01T07:48:00.624Z,51.07
2022-10-01T07:50:33.264Z,50.99
2022-10-01T07:53:05.586Z,50.71
2022-10-01T07:55:36.407Z,50.67
2022-10-01T07:58:08.957Z,50.81
2022-10-01T08:00:43.541Z,50.72
2022-10-01T08:03:16.002Z,50.70
2022-10-01T08:05:46.883Z,50.48
2022-10-01T08:08:19.119Z,50.23
2022-10-01T08:10:51.938Z,50.29
2022-10-01T08:13:25.146Z,50.20
2022-10-01T08:15:57.407Z,50.01
2022-10-01T08:18:28.022Z,49.85
2022-10-01T08:21:02.164Z,49.46
2022-10-01T08:23:34.904Z,49.40
2022-10-01T08:26:09.070Z,49.37
2022-10-01T08:28:41.421Z,49.37
2022-10-01T08:31:13.794Z,49.10
2022-10-01T08:33:46.224Z,48.87
2022-10-01T08:36:18.677Z,48.60
2022-10-01T08:38:51.407Z,48.65
2022-10-01T08:41:31.842Z,48.45
2022-10-01T08:44:05.328Z,48.30
2022-10-01T08:46:38.853Z,48.17
2022-10-01T08:49:16.953Z,48.02
2022-10-01T08:51:52.237Z,47.88
2022-10-01T08:54:31.606Z,47.91
2022-10-01T08:57:05.860Z,47.64
2022-10-01T08:59:42.559Z,47.48
2022-10-01T09:02:22.004Z,47.36
2022-10-01T09:05:01.263Z,47.25
2022-10-01T09:07:50.430Z,47.07
2022-10-01T09:10:33.983Z,46.87
2022-10-01T09:13:30.116Z,46.93
2022-10-01T09:16:07.868Z,46.65
2022-10-01T09:18:51.722Z,46.21
2022-10-01T09:21:29.636Z,45.91
2022-10-01T09:24:08.035Z,45.77
2022-10-01T09:26:41.345Z,45.66
2022-10-01T09:29:17.883Z,45.66
2022-10-01T09:31:51.637Z,45.26
2022-10-01T09:34:31.082Z,45.17
2022-10-01T09:37:11.051Z,44.77
2022-10-01T09:39:46.861Z,44.52
2022-10-01T09:42:19.187Z,44.21
2022-10-01T09:44:51.921Z,44.31
2022-10-01T09:47:25.793Z,44.11
2022-10-01T09:49:58.164Z,43.77
2022-10-01T09:52:34.893Z,43.69
2022-10-01T09:55:12.214Z,43.41
2022-10-01T09:57:48.026Z,43.27
2022-10-01T10:00:23.102Z,43.37
2022-10-01T10:02:56.371Z,43.14
2022-10-01T10:05:30.426Z,42.46
2022-10-01T10:08:11.417Z,42.73
2022-10-01T10:10:53.090Z,42.54
2022-10-01T10:13:36.505Z,42.10
2022-10-01T10:16:20.607Z,41.99
2022-10-01T10:18:54.499Z,41.97
2022-10-01T10:21:29.729Z,41.52
2022-10-01T10:24:03.997Z,41.60
2022-10-01T10:26:38.705Z,41.28
2022-10-01T10:29:30.630Z,40.80
2022-10-01T10:32:08.372Z,40.50
2022-10-01T10:34:42.945Z,40.59
2022-10-01T10:37:17.940Z,40.37
2022-10-01T10:39:52.387Z,40.06
2022-10-01T10:42:25.343Z,39.89
2022-10-01T10:44:59.416Z,39.59
2022-10-01T10:47:33.299Z,39.40
2022-10-01T10:50:09.408Z,39.11
2022-10-01T10:52:45.612Z,38.99
2022-10-01T10:55:27.086Z,38.77
2022-10-01T10:58:12.522Z,38.72
2022-10-01T11:00:50.657Z,38.64
2022-10-01T11:03:26.032Z,38.23
2022-10-01T11:06:12.574Z,38.21
2022-10-01T11:08:45.590Z,37.89
2022-10-01T11:11:32.620Z,37.88
2022-10-01T11:14:12.764Z,37.56
2022-10-01T11:16:56.780Z,37.41
2022-10-01T11:20:19.853Z,37.30
2022-10-01T11:23:00.603Z,37.13
2022-10-01T11:25:43.940Z,36.80
2022-10-01T11:28:29.174Z,36.69
2022-10-01T11:31:06.831Z,36.59
2022-10-01T11:33:46.560Z,36.46
2022-10-01T11:36:26.642Z,36.50
2022-10-01T11:39:01.050Z,36.52
2022-10-01T11:41:38.873Z,36.34
2022-10-01T11:44:18.310Z,36.05
2022-10-01T11:47:01.179Z,36.04
2022-10-01T11:49:46.766Z,35.93
2022-10-01T11:52:34.040Z,35.80
2022-10-01T11:55:32.819Z,35.48
2022-10-01T11:58:27.069Z,35.76
2022-10-01T12:01:05.540Z,35.50
2022-10-01T12:03:44.449Z,35.52
2022-10-01T12:06:19.287Z,35.42
2022-10-01T12:08:58.817Z,35.69
2022-10-01T12:11:36.688Z,35.50
2022-10-01T12:14:13.030Z,35.33
2022-10-01T12:16:51.127Z,35.31
2022-10-01T12:19:26.913Z,35.28
2022-10-01T12:22:03.845Z,35.12
2022-10-01T12:24:40.451Z,35.06
2022-10-01T12:27:41.312Z,34.93
2022-10-01T12:30:15.574Z,34.87
2022-10-01T12:33:01.996Z,34.60
2022-10-01T12:35:53.800Z,34.51
2022-10-01T12:38:43.354Z,34.54
2022-10-01T12:41:26.980Z,34.45
2022-10-01T12:44:11.513Z,34.45
2022-10-01T12:46:50.006Z,34.55
2022-10-01T12:49:30.081Z,34.47
2022-10-01T12:52:09.525Z,34.37
2022-10-01T12:55:09.701Z,34.03
2022-10-01T12:57:47.986Z,34.06
2022-10-01T13:00:22.814Z,33.99
2022-10-01T13:03:45.005Z,33.91
2022-10-01T13:06:27.130Z,33.62
2022-10-01T13:09:06.674Z,33.36
2022-10-01T13:11:54.192Z,33.26
2022-10-01T13:14:26.557Z,33.12
2022-10-01T13:17:03.452Z,33.03
2022-10-01T13:19:41.132Z,32.92
2022-10-01T13:22:19.986Z,32.91
2022-10-01T13:24:54.837Z,32.79
2022-10-01T13:27:32.375Z,32.80
2022-10-01T13:30:07.921Z,32.75
2022-10-01T13:32:56.055Z,32.52
2022-10-01T13:35:35.928Z,32.54
2022-10-01T13:38:29.508Z,32.34
2022-10-01T13:41:20.766Z,32.14
2022-10-01T13:46:30.621Z,32.02
2022-10-01T13:49:07.231Z,31.65
2022-10-01T13:51:40.623Z,31.63
2022-10-01T13:54:22.386Z,31.62
2022-10-01T13:57:08.329Z,31.36
2022-10-01T14:03:30.000Z,31.26
2022-10-01T14:06:23.563Z,31.22
2022-10-01T14:14:27.254Z,31.03
2022-10-01T14:17:06.149Z,30.87
2022-10-01T14:19:51.794Z,30.63
2022-10-01T14:25:05.404Z,30.77
2022-10-01T14:28:35.703Z,30.60
2022-10-01T14:31:55.212Z,30.79
2022-10-01T14:35:35.441Z,30.45
2022-10-01T14:38:48.569Z,30.69
2022-10-01T14:41:25.430Z,30.62
2022-10-01T14:43:58.126Z,30.58
2022-10-01T14:46:38.912Z,30.52
2022-10-01T14:49:23.460Z,30.53
2022-10-01T14:52:05.262Z,30.76
2022-10-01T14:54:50.001Z,30.81
2022-10-01T14:57:32.383Z,30.59
2022-10-01T15:00:10.432Z,30.43
2022-10-01T15:02:49.592Z,30.47
2022-10-01T15:05:27.002Z,30.59
2022-10-01T15:07:59.988Z,30.66
2022-10-01T15:10:33.122Z,30.79
2022-10-01T15:13:06.080Z,30.92
2022-10-01T15:15:42.903Z,30.85
2022-10-01T15:18:17.355Z,30.63
2022-10-01T15:21:05.709Z,30.81
2022-10-01T15:23:40.938Z,30.81
2022-10-01T15:26:19.972Z,30.90
2022-10-01T15:29:02.158Z,31.01
2022-10-01T15:31:32.694Z,30.76
2022-10-01T15:34:06.358Z,30.96
2022-10-01T15:36:38.682Z,30.81
2022-10-01T15:39:24.305Z,30.66
2022-10-01T15:41:57.654Z,30.63
2022-10-01T15:44:50.391Z,30.65
2022-10-01T15:47:35.659Z,30.78
2022-10-01T15:50:19.221Z,30.71
2022-10-01T15:53:02.061Z,30.82
2022-10-01T15:55:42.893Z,30.85
2022-10-01T15:58:18.476Z,30.93
2022-10-01T16:01:02.862Z,31.10
2022-10-01T16:03:36.415Z,31.02
2022-10-01T16:06:19.453Z,30.96
2022-10-01T16:09:02.232Z,31.18
2022-10-01T16:11:36.102Z,31.01
2022-10-01T16:14:36.745Z,31.09
2022-10-01T16:17:30.191Z,31.19
2022-10-01T16:20:24.499Z,31.35
2022-10-01T16:23:34.945Z,31.28
2022-10-01T16:26:29.732Z,31.41
2022-10-01T16:29:03.659Z,31.35
2022-10-01T16:31:38.213Z,31.46
2022-10-01T16:34:15.422Z,31.56
2022-10-01T16:36:47.679Z,31.54
2022-10-01T16:39:19.854Z,31.61
2022-10-01T16:42:12.063Z,31.52
2022-10-01T16:44:45.592Z,31.64
2022-10-01T16:47:16.114Z,31.90
2022-10-01T16:49:49.317Z,31.82
2022-10-01T16:52:21.537Z,31.98
2022-10-01T16:54:53.970Z,32.05
2022-10-01T16:57:26.829Z,32.13
2022-10-01T16:59:59.302Z,32.29
2022-10-01T17:02:31.786Z,32.26
2022-10-01T17:05:04.312Z,32.34
2022-10-01T17:07:36.527Z,32.45
2022-10-01T17:10:07.769Z,32.59
2022-10-01T17:12:39.961Z,32.68
2022-10-01T17:15:17.543Z,32.86
2022-10-01T17:17:49.858Z,32.94
2022-10-01T17:20:22.726Z,33.06
2022-10-01T17:22:55.432Z,33.28
2022-10-01T17:25:31.110Z,33.37
2022-10-01T17:28:05.309Z,33.51
2022-10-01T17:30:38.105Z,33.64
2022-10-01T17:33:12.448Z,33.72
2022-10-01T17:35:46.110Z,33.88
2022-10-01T17:38:18.322Z,34.13
2022-10-01T17:40:56.501Z,34.35
2022-10-01T17:43:29.413Z,34.56
2022-10-01T17:46:00.833Z,34.67
2022-10-01T17:48:33.146Z,34.80
2022-10-01T17:51:05.620Z,34.91
2022-10-01T17:53:42.519Z,35.16
2022-10-01T17:56:17.642Z,35.23
2022-10-01T17:58:49.879Z,35.50
2022-10-01T18:01:22.390Z,35.46
2022-10-01T18:03:56.433Z,35.92
2022-10-01T18:06:29.722Z,35.90
2022-10-01T18:09:02.147Z,36.02
2022-10-01T18:11:34.715Z,36.13
2022-10-01T18:14:10.788Z,36.33
2022-10-01T18:16:47.320Z,36.67
2022-10-01T18:22:14.418Z,36.77
2022-10-01T18:24:47.116Z,36.90
2022-10-01T18:27:19.365Z,37.06
2022-10-01T18:29:49.904Z,37.18
2022-10-01T18:32:24.965Z,37.25
2022-10-01T18:34:59.722Z,37.41
2022-10-01T18:37:40.147Z,37.36
2022-10-01T18:40:18.166Z,37.81
2022-10-01T18:42:54.319Z,37.82
2022-10-01T18:45:41.281Z,38.07
2022-10-01T18:48:27.449Z,37.88
2022-10-01T18:51:06.564Z,38.20
2022-10-01T18:54:02.337Z,38.36
2022-10-01T18:56:36.436Z,38.45
2022-10-01T18:59:46.509Z,38.32
2022-10-01T19:02:38.727Z,38.74
2022-10-01T19:05:40.341Z,38.93
2022-10-01T19:08:24.731Z,38.99
2022-10-01T19:11:03.062Z,39.04
2022-10-01T19:13:40.480Z,39.22
2022-10-01T19:16:23.854Z,39.15
2022-10-01T19:19:13.044Z,39.61
2022-10-01T19:21:51.308Z,39.57
2022-10-01T19:24:40.380Z,39.76
2022-10-01T19:27:21.694Z,39.87
2022-10-01T19:30:03.463Z,40.05
2022-10-01T19:32:42.426Z,40.33
2022-10-01T19:35:21.787Z,40.45
2022-10-01T19:37:56.650Z,40.43
2022-10-01T19:40:32.785Z,40.55
2022-10-01T19:43:10.925Z,40.76
2022-10-01T19:45:48.469Z,40.87
2022-10-01T19:48:25.456Z,40.98
2022-10-01T19:51:00.975Z,40.92
2022-10-01T19:53:37.642Z,41.05
2022-10-01T19:56:12.976Z,41.09
2022-10-01T19:58:45.606Z,41.33
2022-10-01T20:01:22.594Z,41.23
2022-10-01T20:04:02.256Z,41.50
2022-10-01T20:06:36.934Z,41.57
2022-10-01T20:09:16.546Z,41.82
2022-10-01T20:11:53.200Z,41.85
2022-10-01T20:14:59.792Z,42.02
2022-10-01T20:17:34.956Z,42.20
2022-10-01T20:20:16.924Z,42.24
2022-10-01T20:23:01.232Z,42.53
2022-10-01T20:25:40.070Z,42.86
2022-10-01T20:28:17.103Z,42.94
2022-10-01T20:30:57.288Z,43.03
2022-10-01T20:33:36.394Z,43.31
2022-10-01T20:36:12.621Z,43.59
2022-10-01T20:38:50.088Z,43.83
2022-10-01T20:41:23.571Z,44.08
2022-10-01T20:43:59.124Z,44.17
2022-10-01T20:46:38.495Z,44.46
2022-10-01T20:49:17.592Z,44.66
2022-10-01T20:51:58.265Z,44.95
2022-10-01T20:54:35.747Z,45.15
2022-10-01T20:57:12.376Z,45.24
2022-10-01T20:59:47.149Z,45.39
2022-10-01T21:02:28.628Z,45.49
2022-10-01T21:05:05.918Z,45.66
2022-10-01T21:07:50.864Z,45.78
2022-10-01T21:10:29.446Z,45.96
2022-10-01T21:13:07.756Z,46.09
2022-10-01T21:15:49.622Z,46.34
2022-10-01T21:18:28.750Z,46.50
2022-10-01T21:21:08.340Z,46.71
2022-10-01T21:23:56.381Z,46.97
2022-10-01T21:26:36.121Z,47.39
2022-10-01T21:29:28.975Z,47.92
2022-10-01T21:32:12.661Z,48.20
2022-10-01T21:34:53.565Z,48.52
2022-10-01T21:37:30.003Z,48.71
2022-10-01T21:40:11.857Z,49.16
2022-10-01T21:42:52.128Z,49.31
2022-10-01T21:45:28.744Z,49.68
2022-10-01T21:48:20.289Z,49.84
2022-10-01T21:50:57.821Z,50.18
2022-10-01T21:53:59.893Z,50.36
2022-10-01T21:56:49.745Z,50.92
2022-10-01T21:59:42.330Z,51.00
2022-10-01T22:02:26.892Z,51.33
2022-10-01T22:05:04.077Z,51.60
2022-10-01T22:07:39.381Z,51.96
2022-10-01T22:10:16.959Z,52.22
2022-10-01T22:12:51.646Z,52.47
2022-10-01T22:15:27.808Z,52.84
2022-10-01T22:18:00.297Z,52.81
2022-10-01T22:20:31.104Z,53.00
2022-10-01T22:23:05.745Z,53.01
2022-10-01T22:25:44.051Z,53.26
2022-10-01T22:28:19.894Z,53.57
2022-10-01T22:30:53.262Z,53.58
2022-10-01T22:33:29.967Z,53.61
2022-10-01T22:36:06.857Z,53.70
2022-10-01T22:38:44.102Z,53.95
2022-10-01T22:41:21.239Z,54.03
2022-10-01T22:43:53.398Z,54.05
2022-10-01T22:46:40.832Z,54.24
2022-10-01T22:49:20.681Z,54.42
2022-10-01T22:52:03.461Z,54.53
2022-10-01T22:54:44.680Z,54.65
2022-10-01T22:57:28.003Z,54.81
2022-10-01T23:00:06.702Z,54.85
2022-10-01T23:02:43.063Z,55.12
2022-10-01T23:05:29.919Z,55.23
2022-10-01T23:08:07.005Z,55.39
2022-10-01T23:10:44.296Z,55.42
2022-10-01T23:13:24.513Z,55.43
2022-10-01T23:16:00.834Z,55.48
2022-10-01T23:18:40.983Z,55.51
2022-10-01T23:21:20.526Z,55.78
2022-10-01T23:23:57.983Z,55.79
2022-10-01T23:26:37.799Z,56.03
2022-10-01T23:29:35.637Z,56.06
2022-10-01T23:32:17.536Z,56.16
2022-10-01T23:34:55.888Z,56.38
2022-10-01T23:37:58.091Z,56.45
2022-10-01T23:40:34.595Z,56.53
2022-10-01T23:43:13.033Z,56.51
2022-10-01T23:45:48.073Z,56.81
2022-10-01T23:48:23.566Z,56.87
2022-10-01T23:50:59.796Z,56.86
2022-10-01T23:53:35.299Z,57.11
2022-10-01T23:56:28.324Z,57.11
2022-10-01T23:59:05.061Z,57.30
